Time;durP1;ratioP1;P1;durP2;ratioP2;P2;SDS_P1;SDS_P2;PMS_P1;PMS_P2;Temp;Humidity;BMP_temperature;BMP_pressure;BME280_temperature;BME280_humidity;BME280_pressure;Samples;Min_cycle;Max_cycle;Signal;HPM_P1;HPM_P2
2023/09/08 00:02:25;;;;;;;;;;;25.70;1.00;;;;;;4973666;28;19965;-63
2023/09/08 00:04:52;;;;;;;;;;;25.70;1.00;;;;;;4973330;28;19926;-63
2023/09/08 00:07:19;;;;;;;;;;;25.70;1.00;;;;;;4973634;28;19934;-63
2023/09/08 00:09:46;;;;;;;;;;;25.70;1.00;;;;;;4973560;28;20009;-63
2023/09/08 00:12:13;;;;;;;;;;;25.60;1.00;;;;;;4973491;28;19960;-63
2023/09/08 00:14:39;;;;;;;;;;;25.70;1.00;;;;;;4973274;28;19933;-63
2023/09/08 00:17:06;;;;;;;;;;;25.60;1.00;;;;;;4973555;28;20033;-63
2023/09/08 00:19:33;;;;;;;;;;;25.60;1.00;;;;;;4973594;28;20350;-63
2023/09/08 00:22:00;;;;;;;;;;;25.60;1.00;;;;;;4973523;28;19980;-63
2023/09/08 00:24:27;;;;;;;;;;;25.60;1.00;;;;;;4973226;28;19926;-63
2023/09/08 00:26:54;;;;;;;;;;;25.60;1.00;;;;;;4973305;28;19936;-63
2023/09/08 00:29:21;;;;;;;;;;;25.60;1.00;;;;;;4973415;28;19933;-64
2023/09/08 00:31:47;;;;;;;;;;;25.60;1.00;;;;;;4973369;28;19934;-64
2023/09/08 00:34:14;;;;;;;;;;;25.60;1.00;;;;;;4972163;28;20370;-64
2023/09/08 00:36:41;;;;;;;;;;;25.60;1.00;;;;;;4973172;28;19958;-64
2023/09/08 00:39:08;;;;;;;;;;;25.60;1.00;;;;;;4988086;28;19926;-64
2023/09/08 00:41:35;;;;;;;;;;;25.60;1.00;;;;;;4973165;28;20021;-64
2023/09/08 00:44:02;;;;;;;;;;;25.60;1.00;;;;;;4972677;28;19979;-62
2023/09/08 00:46:30;;;;;;;;;;;25.50;1.00;;;;;;4977371;28;19973;-63
2023/09/08 00:48:57;;;;;;;;;;;25.50;1.00;;;;;;4975831;28;19926;-63
2023/09/08 00:51:24;;;;;;;;;;;25.50;1.00;;;;;;4975696;28;19936;-64
2023/09/08 00:53:51;;;;;;;;;;;25.50;1.00;;;;;;4975462;28;19930;-64
2023/09/08 00:56:18;;;;;;;;;;;25.50;1.00;;;;;;4976965;28;20453;-64
2023/09/08 00:58:45;;;;;;;;;;;25.50;1.00;;;;;;4975518;28;19957;-64
2023/09/08 01:01:12;;;;;;;;;;;25.50;1.00;;;;;;4976878;28;20009;-64
2023/09/08 01:03:39;;;;;;;;;;;25.50;1.00;;;;;;4976834;28;19926;-64
2023/09/08 01:06:06;;;;;;;;;;;25.50;1.00;;;;;;4976523;28;20158;-64
2023/09/08 01:08:34;;;;;;;;;;;25.50;1.00;;;;;;4975330;28;19926;-63
2023/09/08 01:11:02;;;;;;;;;;;25.50;1.00;;;;;;4976819;28;19926;-64
2023/09/08 01:13:29;;;;;;;;;;;25.50;1.00;;;;;;4976922;28;19930;-64
2023/09/08 01:15:56;;;;;;;;;;;25.50;1.00;;;;;;4967176;28;20249;-64
2023/09/08 01:18:23;;;;;;;;;;;25.50;1.00;;;;;;4976634;28;19977;-63
2023/09/08 01:20:51;;;;;;;;;;;25.50;1.00;;;;;;4974931;28;19926;-63
2023/09/08 01:23:21;;;;;;;;;;;25.50;1.00;;;;;;4975357;28;19965;-62
2023/09/08 01:25:57;;;;;;;;;;;25.40;1.00;;;;;;4991110;28;19953;-63
2023/09/08 01:28:24;;;;;;;;;;;25.40;1.00;;;;;;4975253;28;19980;-64
2023/09/08 01:30:51;;;;;;;;;;;25.40;1.00;;;;;;4975017;28;19930;-64
2023/09/08 01:33:18;;;;;;;;;;;25.40;1.00;;;;;;4974974;28;19953;-64
2023/09/08 01:35:46;;;;;;;;;;;25.40;1.00;;;;;;4990955;28;20042;-63
2023/09/08 01:38:12;;;;;;;;;;;25.40;1.00;;;;;;4974963;28;20354;-64
2023/09/08 01:40:39;;;;;;;;;;;25.40;1.00;;;;;;4976122;28;19927;-64
2023/09/08 01:43:06;;;;;;;;;;;25.40;1.00;;;;;;4976235;28;20409;-64
2023/09/08 01:45:32;;;;;;;;;;;25.40;1.00;;;;;;4974685;28;19926;-64
2023/09/08 01:47:59;;;;;;;;;;;25.40;1.00;;;;;;4975441;28;20291;-64
2023/09/08 01:50:26;;;;;;;;;;;25.40;1.00;;;;;;4977371;28;20330;-64
2023/09/08 01:52:53;;;;;;;;;;;25.40;1.00;;;;;;4977001;28;19956;-64
2023/09/08 01:55:21;;;;;;;;;;;25.40;1.00;;;;;;4974797;28;19938;-63
2023/09/08 01:57:48;;;;;;;;;;;25.40;1.00;;;;;;4974881;28;19980;-64
2023/09/08 02:00:17;;;;;;;;;;;25.40;1.00;;;;;;4974639;28;19926;-64
2023/09/08 02:02:44;;;;;;;;;;;25.40;1.00;;;;;;4974705;28;20369;-64
2023/09/08 02:05:10;;;;;;;;;;;25.40;1.00;;;;;;4974244;28;19949;-64
2023/09/08 02:07:37;;;;;;;;;;;25.30;1.00;;;;;;4974716;28;20338;-64
2023/09/08 02:10:04;;;;;;;;;;;25.30;1.00;;;;;;4974423;28;20357;-64
2023/09/08 02:12:31;;;;;;;;;;;25.30;1.00;;;;;;4974244;28;19957;-64
2023/09/08 02:14:59;;;;;;;;;;;25.30;1.00;;;;;;4990111;28;20444;-64
2023/09/08 02:17:27;;;;;;;;;;;25.30;1.00;;;;;;4974371;28;20029;-64
2023/09/08 02:19:53;;;;;;;;;;;25.30;1.00;;;;;;4974220;28;19930;-64
2023/09/08 02:22:20;;;;;;;;;;;25.30;1.00;;;;;;4975411;28;20400;-64
2023/09/08 02:24:47;;;;;;;;;;;25.30;1.00;;;;;;4973990;28;20360;-64
2023/09/08 02:27:14;;;;;;;;;;;25.30;1.00;;;;;;4974146;28;20379;-64
2023/09/08 02:29:41;;;;;;;;;;;25.30;1.00;;;;;;4973833;28;20394;-62
2023/09/08 02:32:08;;;;;;;;;;;25.30;1.00;;;;;;4975189;28;20341;-64
2023/09/08 02:34:36;;;;;;;;;;;25.30;1.00;;;;;;4957747;28;19966;-63
2023/09/08 02:37:05;;;;;;;;;;;25.30;1.00;;;;;;4973778;28;19937;-63
2023/09/08 02:39:33;;;;;;;;;;;25.30;1.00;;;;;;4974008;28;19926;-63
2023/09/08 02:42:00;;;;;;;;;;;25.30;1.00;;;;;;4973560;28;19976;-63
2023/09/08 02:44:28;;;;;;;;;;;25.30;1.00;;;;;;4973642;28;20301;-63
2023/09/08 02:46:55;;;;;;;;;;;25.30;1.00;;;;;;4973510;28;19934;-63
2023/09/08 02:49:24;;;;;;;;;;;25.20;1.00;;;;;;4973706;28;19958;-63
2023/09/08 02:51:50;;;;;;;;;;;25.20;1.00;;;;;;4973333;28;20412;-63
2023/09/08 02:54:17;;;;;;;;;;;25.20;1.00;;;;;;4973425;28;20114;-63
2023/09/08 02:56:44;;;;;;;;;;;25.20;1.00;;;;;;4973400;28;19949;-63
2023/09/08 02:59:11;;;;;;;;;;;25.20;1.00;;;;;;4989773;28;19981;-63
2023/09/08 03:01:37;;;;;;;;;;;25.20;1.00;;;;;;4973330;28;19926;-63
2023/09/08 03:04:04;;;;;;;;;;;25.20;1.00;;;;;;4973176;28;19926;-63
2023/09/08 03:06:32;;;;;;;;;;;25.20;1.00;;;;;;4972946;28;20034;-62
2023/09/08 03:08:58;;;;;;;;;;;25.20;1.00;;;;;;4974562;28;19965;-63
2023/09/08 03:11:25;;;;;;;;;;;25.20;1.00;;;;;;4973021;28;19926;-63
2023/09/08 03:13:52;;;;;;;;;;;25.10;1.00;;;;;;4972797;28;19961;-62
2023/09/08 03:16:19;;;;;;;;;;;25.20;1.00;;;;;;4989681;28;20016;-63
2023/09/08 03:18:47;;;;;;;;;;;25.20;1.00;;;;;;4989179;28;19930;-63
2023/09/08 03:21:14;;;;;;;;;;;25.10;1.00;;;;;;4973114;28;19927;-63
2023/09/08 03:23:42;;;;;;;;;;;25.10;1.00;;;;;;4973015;28;19972;-62
2023/09/08 03:26:09;;;;;;;;;;;25.10;1.00;;;;;;4972895;28;19932;-63
2023/09/08 03:28:36;;;;;;;;;;;25.10;1.00;;;;;;4973056;28;19993;-63
2023/09/08 03:31:03;;;;;;;;;;;25.10;1.00;;;;;;4972927;28;19926;-63
2023/09/08 03:33:33;;;;;;;;;;;25.10;1.00;;;;;;4989044;28;19926;-62
2023/09/08 03:36:01;;;;;;;;;;;25.10;1.00;;;;;;4972402;28;20275;-62
2023/09/08 03:38:28;;;;;;;;;;;25.10;1.00;;;;;;4972690;28;20409;-63
2023/09/08 03:40:55;;;;;;;;;;;25.10;1.00;;;;;;4972672;28;19930;-62
2023/09/08 03:43:22;;;;;;;;;;;25.10;1.00;;;;;;4972574;28;19927;-63
2023/09/08 03:45:49;;;;;;;;;;;25.10;1.00;;;;;;4972385;28;20394;-63
2023/09/08 03:48:16;;;;;;;;;;;25.10;1.00;;;;;;4972610;28;20465;-62
2023/09/08 03:50:45;;;;;;;;;;;25.10;1.00;;;;;;4972793;28;20382;-63
2023/09/08 03:53:12;;;;;;;;;;;25.10;1.00;;;;;;4972507;28;20382;-62
2023/09/08 03:55:39;;;;;;;;;;;25.10;1.00;;;;;;4972395;28;20310;-63
2023/09/08 03:58:05;;;;;;;;;;;25.10;1.00;;;;;;4973649;28;19926;-63
2023/09/08 04:00:32;;;;;;;;;;;25.10;1.00;;;;;;4972626;28;20117;-63
2023/09/08 04:02:59;;;;;;;;;;;25.10;1.00;;;;;;4973485;28;20298;-62
2023/09/08 04:05:26;;;;;;;;;;;25.10;1.00;;;;;;4973328;28;20024;-62
2023/09/08 04:07:53;;;;;;;;;;;25.10;1.00;;;;;;4972271;28;19926;-63
2023/09/08 04:10:20;;;;;;;;;;;25.10;1.00;;;;;;4970576;28;19949;-63
2023/09/08 04:12:46;;;;;;;;;;;25.10;1.00;;;;;;4971440;28;19941;-62
2023/09/08 04:15:13;;;;;;;;;;;25.00;1.00;;;;;;4972042;28;19934;-62
2023/09/08 04:17:40;;;;;;;;;;;25.00;1.00;;;;;;4972253;28;19926;-63
2023/09/08 04:20:08;;;;;;;;;;;24.90;1.00;;;;;;4971335;28;19985;-63
2023/09/08 04:22:35;;;;;;;;;;;24.80;1.00;;;;;;4972179;28;19926;-63
2023/09/08 04:25:02;;;;;;;;;;;24.80;1.00;;;;;;4970228;28;20251;-62
2023/09/08 04:27:28;;;;;;;;;;;24.80;1.00;;;;;;4972640;28;19927;-62
2023/09/08 04:29:55;;;;;;;;;;;24.70;1.00;;;;;;4972074;28;19953;-62
2023/09/08 04:32:22;;;;;;;;;;;24.70;1.00;;;;;;4973180;28;19998;-62
2023/09/08 04:34:49;;;;;;;;;;;24.70;1.00;;;;;;4973138;28;19927;-62
2023/09/08 04:37:17;;;;;;;;;;;24.70;1.00;;;;;;4972252;28;19985;-62
2023/09/08 04:39:44;;;;;;;;;;;24.70;1.00;;;;;;4972122;28;20346;-62
2023/09/08 04:42:12;;;;;;;;;;;24.70;1.00;;;;;;4971977;28;19933;-62
2023/09/08 04:44:40;;;;;;;;;;;24.80;1.00;;;;;;4971982;28;19926;-62
2023/09/08 04:47:09;;;;;;;;;;;24.70;1.00;;;;;;4970923;28;21324;-63
2023/09/08 04:49:37;;;;;;;;;;;24.70;1.00;;;;;;4972138;28;19980;-63
2023/09/08 04:52:04;;;;;;;;;;;24.70;1.00;;;;;;4971888;28;20350;-63
2023/09/08 04:54:32;;;;;;;;;;;24.70;1.00;;;;;;4972704;28;20301;-63
2023/09/08 04:56:59;;;;;;;;;;;24.70;1.00;;;;;;4972177;28;20338;-63
2023/09/08 04:59:47;;;;;;;;;;;24.70;1.00;;;;;;4972061;28;19933;-62
2023/09/08 05:02:14;;;;;;;;;;;24.70;1.00;;;;;;4970076;28;20385;-64
2023/09/08 05:04:41;;;;;;;;;;;24.70;1.00;;;;;;4972044;28;19962;-62
2023/09/08 05:07:10;;;;;;;;;;;24.70;1.00;;;;;;4970507;28;19977;-64
2023/09/08 05:09:37;;;;;;;;;;;24.70;1.00;;;;;;4972599;28;20385;-62
2023/09/08 05:12:04;;;;;;;;;;;24.70;1.00;;;;;;4972129;28;20349;-62
2023/09/08 05:14:31;;;;;;;;;;;24.70;1.00;;;;;;4971831;28;19927;-64
2023/09/08 05:16:58;;;;;;;;;;;24.70;1.00;;;;;;4971566;28;20309;-62
2023/09/08 05:19:27;;;;;;;;;;;24.70;1.00;;;;;;4988025;28;20453;-62
2023/09/08 05:21:56;;;;;;;;;;;24.70;1.00;;;;;;4971688;28;19933;-62
2023/09/08 05:24:25;;;;;;;;;;;24.70;1.00;;;;;;4971700;28;19949;-62
2023/09/08 05:26:52;;;;;;;;;;;24.60;1.00;;;;;;4971486;28;19930;-62
2023/09/08 05:29:19;;;;;;;;;;;24.60;1.00;;;;;;4971536;28;19926;-62
2023/09/08 05:31:47;;;;;;;;;;;24.60;1.00;;;;;;4974693;28;19937;-62
2023/09/08 05:34:15;;;;;;;;;;;24.60;1.00;;;;;;4974815;28;19937;-62
2023/09/08 05:36:42;;;;;;;;;;;24.60;1.00;;;;;;4974730;28;19946;-62
2023/09/08 05:39:10;;;;;;;;;;;24.60;1.00;;;;;;4974920;28;19926;-62
2023/09/08 05:41:37;;;;;;;;;;;24.60;1.00;;;;;;4974892;28;19930;-62
2023/09/08 05:44:04;;;;;;;;;;;24.60;1.00;;;;;;4974602;28;20034;-62
2023/09/08 05:46:31;;;;;;;;;;;24.60;1.00;;;;;;4975913;28;20365;-62
2023/09/08 05:48:58;;;;;;;;;;;24.60;1.00;;;;;;4991028;28;19965;-62
2023/09/08 05:51:25;;;;;;;;;;;24.60;1.00;;;;;;4975025;28;19934;-62
2023/09/08 05:53:54;;;;;;;;;;;24.60;1.00;;;;;;4974480;28;19988;-62
2023/09/08 05:56:24;;;;;;;;;;;24.60;1.00;;;;;;4974531;28;19960;-62
2023/09/08 05:58:51;;;;;;;;;;;24.60;1.00;;;;;;4974575;28;19949;-62
2023/09/08 06:01:19;;;;;;;;;;;24.60;1.00;;;;;;4975711;28;19932;-62
2023/09/08 06:03:49;;;;;;;;;;;24.60;1.00;;;;;;4974705;28;20385;-62
2023/09/08 06:06:16;;;;;;;;;;;24.60;1.00;;;;;;4974106;28;19926;-62
2023/09/08 06:08:43;;;;;;;;;;;24.60;1.00;;;;;;4975626;28;19926;-62
2023/09/08 06:11:09;;;;;;;;;;;24.60;1.00;;;;;;4974201;28;19926;-62
2023/09/08 06:13:36;;;;;;;;;;;24.60;1.00;;;;;;4975507;28;19932;-62
2023/09/08 06:16:03;;;;;;;;;;;24.60;1.00;;;;;;4973933;28;19968;-63
2023/09/08 06:18:30;;;;;;;;;;;24.60;1.00;;;;;;4974201;28;19926;-63
2023/09/08 06:20:58;;;;;;;;;;;24.60;1.00;;;;;;4973945;28;20025;-62
2023/09/08 06:23:25;;;;;;;;;;;24.60;1.00;;;;;;4974279;28;20381;-63
2023/09/08 06:25:58;;;;;;;;;;;24.60;1.00;;;;;;4973836;28;20017;-62
2023/09/08 06:28:29;;;;;;;;;;;24.60;1.00;;;;;;4966418;28;19926;-62
2023/09/08 06:30:56;;;;;;;;;;;24.60;1.00;;;;;;4974007;28;20029;-59
2023/09/08 06:33:24;;;;;;;;;;;24.60;1.00;;;;;;4973722;28;20301;-62
2023/09/08 06:35:51;;;;;;;;;;;24.60;1.00;;;;;;4973520;28;19949;-61
2023/09/08 06:38:19;;;;;;;;;;;24.60;1.00;;;;;;4973696;28;19965;-61
2023/09/08 06:40:46;;;;;;;;;;;24.60;1.00;;;;;;4973801;28;19926;-61
2023/09/08 06:43:13;;;;;;;;;;;24.60;1.00;;;;;;4974139;28;19926;-61
2023/09/08 06:45:49;;;;;;;;;;;24.60;1.00;;;;;;4973459;28;19926;-61
2023/09/08 06:48:17;;;;;;;;;;;24.60;1.00;;;;;;4973718;28;19926;-61
2023/09/08 06:50:43;;;;;;;;;;;24.60;1.00;;;;;;4973635;28;19927;-61
2023/09/08 06:53:12;;;;;;;;;;;24.60;1.00;;;;;;4974641;28;19926;-61
2023/09/08 06:55:39;;;;;;;;;;;24.60;1.00;;;;;;4973306;28;20390;-61
2023/09/08 06:58:11;;;;;;;;;;;24.60;1.00;;;;;;4973646;28;19926;-61
2023/09/08 07:00:39;;;;;;;;;;;24.60;1.00;;;;;;4974701;28;19926;-61
2023/09/08 07:03:07;;;;;;;;;;;24.60;1.00;;;;;;4973488;28;20294;-62
2023/09/08 07:05:35;;;;;;;;;;;24.60;1.00;;;;;;4974506;28;20020;-62
2023/09/08 07:08:02;;;;;;;;;;;24.60;1.00;;;;;;4973422;28;20302;-61
2023/09/08 07:10:29;;;;;;;;;;;24.60;1.00;;;;;;4966797;28;19926;-62
2023/09/08 07:12:56;;;;;;;;;;;24.60;1.00;;;;;;4973129;28;19934;-62
2023/09/08 07:15:23;;;;;;;;;;;24.60;1.00;;;;;;4988991;28;19958;-62
2023/09/08 07:17:50;;;;;;;;;;;24.60;1.00;;;;;;4973220;28;19930;-61
2023/09/08 07:20:17;;;;;;;;;;;24.60;1.00;;;;;;4989215;28;19926;-61
2023/09/08 07:22:44;;;;;;;;;;;24.60;1.00;;;;;;4974404;28;19930;-62
2023/09/08 07:25:11;;;;;;;;;;;24.60;1.00;;;;;;4988922;28;19969;-61
2023/09/08 07:27:38;;;;;;;;;;;24.60;1.00;;;;;;4972912;28;19929;-62
2023/09/08 07:30:06;;;;;;;;;;;24.60;1.00;;;;;;4974116;28;19930;-63
2023/09/08 07:32:34;;;;;;;;;;;24.60;1.00;;;;;;4989094;28;19933;-62
2023/09/08 07:35:01;;;;;;;;;;;24.60;1.00;;;;;;4988597;28;19927;-61
2023/09/08 07:37:28;;;;;;;;;;;24.60;1.00;;;;;;4973801;28;19930;-62
2023/09/08 07:39:55;;;;;;;;;;;24.70;1.00;;;;;;4956955;28;19932;-63
2023/09/08 07:42:23;;;;;;;;;;;24.70;1.00;;;;;;4972519;28;19926;-62
2023/09/08 07:44:50;;;;;;;;;;;24.70;1.00;;;;;;4972503;28;19926;-62
2023/09/08 07:47:17;;;;;;;;;;;24.70;1.00;;;;;;4973850;28;19973;-61
2023/09/08 07:49:47;;;;;;;;;;;24.70;1.00;;;;;;4973975;28;19926;-62
2023/09/08 07:52:14;;;;;;;;;;;24.70;1.00;;;;;;4973784;28;20341;-62
2023/09/08 07:54:41;;;;;;;;;;;24.70;1.00;;;;;;4973443;28;19930;-61
2023/09/08 07:57:08;;;;;;;;;;;24.70;1.00;;;;;;4973494;28;19926;-63
2023/09/08 07:59:34;;;;;;;;;;;24.70;1.00;;;;;;4972714;28;19926;-62
2023/09/08 08:02:03;;;;;;;;;;;24.70;1.00;;;;;;4974109;28;19930;-62
2023/09/08 08:04:30;;;;;;;;;;;24.70;1.00;;;;;;4975490;28;19933;-61
2023/09/08 08:06:57;;;;;;;;;;;24.70;1.00;;;;;;4974719;28;19948;-62
2023/09/08 08:09:24;;;;;;;;;;;24.70;1.00;;;;;;4974738;28;19926;-62
2023/09/08 08:11:51;;;;;;;;;;;24.70;1.00;;;;;;4973894;28;19932;-62
2023/09/08 08:14:18;;;;;;;;;;;24.80;1.00;;;;;;4973442;28;19932;-62
2023/09/08 08:16:44;;;;;;;;;;;24.80;1.00;;;;;;4973619;28;19930;-62
2023/09/08 08:19:11;;;;;;;;;;;24.70;1.00;;;;;;4973554;28;19933;-64
2023/09/08 08:21:38;;;;;;;;;;;24.70;1.00;;;;;;4973514;28;19932;-63
2023/09/08 08:24:05;;;;;;;;;;;24.80;1.00;;;;;;4973391;28;19927;-62
2023/09/08 08:26:32;;;;;;;;;;;24.80;1.00;;;;;;4973283;28;19926;-62
2023/09/08 08:28:59;;;;;;;;;;;24.80;1.00;;;;;;4973464;28;19937;-60
2023/09/08 08:31:26;;;;;;;;;;;24.80;1.00;;;;;;4973337;28;19933;-62
2023/09/08 08:33:53;;;;;;;;;;;24.80;1.00;;;;;;4973313;28;20169;-62
2023/09/08 08:36:20;;;;;;;;;;;24.80;1.00;;;;;;4972963;28;19926;-63
2023/09/08 08:38:47;;;;;;;;;;;24.80;1.00;;;;;;4973518;28;19933;-62
2023/09/08 08:41:13;;;;;;;;;;;24.80;1.00;;;;;;4973273;28;20374;-62
2023/09/08 08:43:42;;;;;;;;;;;24.90;1.00;;;;;;4973477;28;19969;-62
2023/09/08 08:46:09;;;;;;;;;;;24.90;1.00;;;;;;4973279;28;20401;-63
2023/09/08 08:48:36;;;;;;;;;;;24.90;1.00;;;;;;4973294;28;19926;-62
2023/09/08 08:51:04;;;;;;;;;;;24.90;1.00;;;;;;4973223;28;19933;-63
2023/09/08 08:53:31;;;;;;;;;;;24.90;1.00;;;;;;4973392;28;19941;-62
2023/09/08 08:55:58;;;;;;;;;;;24.90;1.00;;;;;;4972719;28;19926;-63
2023/09/08 08:58:27;;;;;;;;;;;24.90;1.00;;;;;;4973499;28;19926;-62
2023/09/08 09:00:57;;;;;;;;;;;25.00;1.00;;;;;;4973267;28;20024;-63
2023/09/08 09:03:26;;;;;;;;;;;25.00;1.00;;;;;;4973087;28;20400;-62
2023/09/08 09:05:53;;;;;;;;;;;25.00;1.00;;;;;;4975092;28;19926;-63
2023/09/08 09:08:21;;;;;;;;;;;25.00;1.00;;;;;;4977107;28;19930;-63
2023/09/08 09:10:48;;;;;;;;;;;25.00;1.00;;;;;;4976834;28;19926;-63
2023/09/08 09:13:15;;;;;;;;;;;25.00;1.00;;;;;;4976934;28;19958;-62
2023/09/08 09:15:44;;;;;;;;;;;25.00;1.00;;;;;;4976576;28;19926;-62
2023/09/08 09:18:10;;;;;;;;;;;25.10;1.00;;;;;;4977201;28;19926;-62
2023/09/08 09:20:38;;;;;;;;;;;25.10;1.00;;;;;;4976710;28;20410;-63
2023/09/08 09:23:04;;;;;;;;;;;25.10;1.00;;;;;;4976970;28;19933;-61
2023/09/08 09:25:31;;;;;;;;;;;25.10;1.00;;;;;;4976411;28;19945;-62
2023/09/08 09:27:59;;;;;;;;;;;25.10;1.00;;;;;;4977634;28;19926;-63
2023/09/08 09:30:26;;;;;;;;;;;25.10;1.00;;;;;;4976999;28;19932;-62
2023/09/08 09:32:59;;;;;;;;;;;25.10;1.00;;;;;;4976825;28;19930;-63
2023/09/08 09:35:39;;;;;;;;;;;25.10;1.00;;;;;;4976452;28;20412;-62
2023/09/08 09:38:07;;;;;;;;;;;25.10;1.00;;;;;;4976811;28;19981;-63
2023/09/08 09:40:34;;;;;;;;;;;25.10;1.00;;;;;;4975246;28;20343;-63
2023/09/08 09:43:01;;;;;;;;;;;25.10;1.00;;;;;;4976282;28;19926;-63
2023/09/08 09:48:19;;;;;;;;;;;25.20;1.00;;;;;;4937882;28;19949;-61
2023/09/08 09:50:46;;;;;;;;;;;25.20;1.00;;;;;;4923219;29;19934;-60
2023/09/08 09:53:13;;;;;;;;;;;25.20;1.00;;;;;;4914466;29;19962;-60
2023/09/08 09:55:41;;;;;;;;;;;25.20;1.00;;;;;;4917168;29;19931;-62
2023/09/08 09:58:10;;;;;;;;;;;25.20;1.00;;;;;;4918387;29;19991;-62
2023/09/08 10:00:37;;;;;;;;;;;25.20;1.00;;;;;;4918121;29;19989;-62
2023/09/08 10:03:04;;;;;;;;;;;25.20;1.00;;;;;;4918296;29;19927;-62
2023/09/08 10:05:31;;;;;;;;;;;25.20;1.00;;;;;;4918117;29;20018;-61
2023/09/08 10:07:58;;;;;;;;;;;25.20;1.00;;;;;;4918354;29;20031;-62
2023/09/08 10:10:26;;;;;;;;;;;25.20;1.00;;;;;;4918156;29;19955;-61
2023/09/08 10:12:54;;;;;;;;;;;25.30;1.00;;;;;;4917962;29;19937;-61
2023/09/08 10:15:21;;;;;;;;;;;25.30;1.00;;;;;;4918170;29;19935;-62
2023/09/08 10:17:56;;;;;;;;;;;25.30;1.00;;;;;;4916850;29;20268;-62
2023/09/08 10:20:24;;;;;;;;;;;25.30;1.00;;;;;;4918290;29;19977;-62
2023/09/08 10:23:01;;;;;;;;;;;25.30;1.00;;;;;;4917908;29;19927;-61
2023/09/08 10:25:31;;;;;;;;;;;25.30;1.00;;;;;;4917842;29;19974;-61
2023/09/08 10:27:58;;;;;;;;;;;25.30;1.00;;;;;;4917902;29;19934;-61
2023/09/08 10:30:25;;;;;;;;;;;25.30;1.00;;;;;;4917667;29;20346;-61
2023/09/08 10:32:52;;;;;;;;;;;25.30;1.00;;;;;;4917781;29;20014;-62
2023/09/08 10:35:19;;;;;;;;;;;25.30;1.00;;;;;;4917751;29;20328;-61
2023/09/08 10:37:46;;;;;;;;;;;25.30;1.00;;;;;;4917536;29;19975;-58
2023/09/08 10:40:33;;;;;;;;;;;25.30;1.00;;;;;;4917694;29;19934;-60
2023/09/08 10:43:09;;;;;;;;;;;25.30;1.00;;;;;;4917888;29;19934;-61
2023/09/08 10:45:36;;;;;;;;;;;25.30;1.00;;;;;;4917224;29;19934;-61
2023/09/08 10:48:03;;;;;;;;;;;25.40;1.00;;;;;;4917403;29;20123;-61
2023/09/08 10:50:34;;;;;;;;;;;25.40;1.00;;;;;;4917495;29;19959;-61
2023/09/08 10:53:04;;;;;;;;;;;25.40;1.00;;;;;;4917533;29;19962;-61
2023/09/08 10:55:40;;;;;;;;;;;25.40;1.00;;;;;;4917187;29;20399;-61
2023/09/08 10:58:10;;;;;;;;;;;25.40;1.00;;;;;;4917423;29;19933;-61
2023/09/08 11:00:48;;;;;;;;;;;25.40;1.00;;;;;;4917210;29;19933;-61
2023/09/08 11:03:25;;;;;;;;;;;25.40;1.00;;;;;;4917147;29;19933;-61
2023/09/08 11:05:52;;;;;;;;;;;25.40;1.00;;;;;;4916765;29;19927;-61
2023/09/08 11:08:19;;;;;;;;;;;25.40;1.00;;;;;;4917183;29;20341;-61
2023/09/08 11:10:46;;;;;;;;;;;25.40;1.00;;;;;;4917475;29;19927;-62
2023/09/08 11:13:12;;;;;;;;;;;25.40;1.00;;;;;;4917306;29;19989;-62
2023/09/08 11:15:39;;;;;;;;;;;25.40;1.00;;;;;;4916464;29;19927;-62
2023/09/08 11:18:07;;;;;;;;;;;25.40;1.00;;;;;;4917149;29;19927;-61
2023/09/08 11:20:34;;;;;;;;;;;25.40;1.00;;;;;;4915983;29;19941;-62
2023/09/08 11:23:01;;;;;;;;;;;25.40;1.00;;;;;;4910746;29;19927;-61
2023/09/08 11:25:28;;;;;;;;;;;25.40;1.00;;;;;;4916633;29;19934;-60
2023/09/08 11:27:55;;;;;;;;;;;25.40;1.00;;;;;;4916404;29;19946;-62
2023/09/08 11:30:21;;;;;;;;;;;25.40;1.00;;;;;;4916615;29;19951;-62
2023/09/08 11:32:48;;;;;;;;;;;25.40;1.00;;;;;;4916660;29;19973;-62
2023/09/08 11:35:16;;;;;;;;;;;25.40;1.00;;;;;;4916953;29;19927;-61
2023/09/08 11:37:42;;;;;;;;;;;25.40;1.00;;;;;;4916205;29;20421;-62
2023/09/08 11:40:11;;;;;;;;;;;25.40;1.00;;;;;;4916831;29;19927;-61
2023/09/08 11:42:43;;;;;;;;;;;25.40;1.00;;;;;;4916410;29;19974;-62
2023/09/08 11:45:13;;;;;;;;;;;25.40;1.00;;;;;;4916873;29;20025;-61
2023/09/08 11:47:43;;;;;;;;;;;25.40;1.00;;;;;;4915998;29;20037;-62
2023/09/08 11:50:17;;;;;;;;;;;25.40;1.00;;;;;;4916501;29;19934;-61
2023/09/08 11:52:45;;;;;;;;;;;25.40;1.00;;;;;;4916176;29;19931;-59
2023/09/08 11:55:12;;;;;;;;;;;25.40;1.00;;;;;;4908636;29;19935;-61
2023/09/08 11:57:40;;;;;;;;;;;25.40;1.00;;;;;;4915631;29;19927;-61
2023/09/08 12:00:09;;;;;;;;;;;25.40;1.00;;;;;;4916351;29;19927;-61
2023/09/08 12:02:36;;;;;;;;;;;25.40;1.00;;;;;;4916272;29;20402;-62
2023/09/08 12:05:04;;;;;;;;;;;25.40;1.00;;;;;;4916072;29;19931;-60
2023/09/08 12:07:31;;;;;;;;;;;25.40;1.00;;;;;;4915891;29;19994;-62
2023/09/08 12:09:58;;;;;;;;;;;25.40;1.00;;;;;;4916197;29;19970;-62
2023/09/08 12:12:26;;;;;;;;;;;25.40;1.00;;;;;;4916172;29;20410;-60
2023/09/08 12:14:53;;;;;;;;;;;25.40;1.00;;;;;;4916293;29;19931;-60
2023/09/08 12:17:24;;;;;;;;;;;25.40;1.00;;;;;;4915693;29;19927;-62
2023/09/08 12:19:51;;;;;;;;;;;25.40;1.00;;;;;;4916124;29;20018;-62
2023/09/08 12:22:22;;;;;;;;;;;25.40;1.00;;;;;;4916146;29;20010;-62
2023/09/08 12:24:59;;;;;;;;;;;25.40;1.00;;;;;;4915925;29;19935;-60
2023/09/08 12:27:26;;;;;;;;;;;25.40;1.00;;;;;;4915677;29;19970;-61
2023/09/08 12:29:56;;;;;;;;;;;25.40;1.00;;;;;;4915863;29;19932;-62
2023/09/08 12:32:24;;;;;;;;;;;25.40;1.00;;;;;;4916030;29;19934;-62
2023/09/08 12:34:51;;;;;;;;;;;25.40;1.00;;;;;;4915782;29;20010;-62
2023/09/08 12:37:27;;;;;;;;;;;25.40;1.00;;;;;;4915630;29;19927;-62
2023/09/08 12:39:54;;;;;;;;;;;25.40;1.00;;;;;;4905432;29;19974;-62
2023/09/08 12:42:21;;;;;;;;;;;25.40;1.00;;;;;;4914593;29;19927;-61
2023/09/08 12:44:48;;;;;;;;;;;25.40;1.00;;;;;;4916817;29;19928;-62
2023/09/08 12:47:15;;;;;;;;;;;25.40;1.00;;;;;;4915559;29;19927;-62
2023/09/08 12:49:42;;;;;;;;;;;25.40;1.00;;;;;;4919418;29;20350;-61
2023/09/08 12:52:09;;;;;;;;;;;25.40;1.00;;;;;;4919618;29;20303;-60
2023/09/08 12:54:36;;;;;;;;;;;25.40;1.00;;;;;;4916739;29;20022;-60
2023/09/08 12:57:02;;;;;;;;;;;25.40;1.00;;;;;;4914287;29;19934;-60
2023/09/08 12:59:32;;;;;;;;;;;25.40;1.00;;;;;;4915482;29;19927;-62
2023/09/08 13:01:59;;;;;;;;;;;25.40;1.00;;;;;;4909649;29;19959;-55
2023/09/08 13:04:26;;;;;;;;;;;25.40;1.00;;;;;;4907649;29;20014;-62
2023/09/08 13:06:52;;;;;;;;;;;25.40;1.00;;;;;;4918539;29;19950;-62
2023/09/08 13:09:20;;;;;;;;;;;25.50;1.00;;;;;;4919403;29;20299;-62
2023/09/08 13:11:47;;;;;;;;;;;25.40;1.00;;;;;;4911341;29;19951;-61
2023/09/08 13:14:13;;;;;;;;;;;25.40;1.00;;;;;;4919238;29;19973;-61
2023/09/08 13:16:40;;;;;;;;;;;25.40;1.00;;;;;;4918554;29;20405;-61
2023/09/08 13:19:07;;;;;;;;;;;25.40;1.00;;;;;;4919243;29;19927;-61
2023/09/08 13:21:34;;;;;;;;;;;25.40;1.00;;;;;;4919043;29;19928;-61
2023/09/08 13:24:03;;;;;;;;;;;25.40;1.00;;;;;;4918949;29;19927;-61
2023/09/08 13:26:31;;;;;;;;;;;25.40;1.00;;;;;;4918533;29;19927;-62
2023/09/08 13:28:58;;;;;;;;;;;25.40;1.00;;;;;;4918984;29;19963;-61
2023/09/08 13:31:25;;;;;;;;;;;25.50;1.00;;;;;;4911076;29;19970;-62
2023/09/08 13:33:52;;;;;;;;;;;25.50;1.00;;;;;;4918831;29;19935;-62
2023/09/08 13:36:19;;;;;;;;;;;25.40;1.00;;;;;;4918569;29;19949;-60
2023/09/08 13:38:45;;;;;;;;;;;25.50;1.00;;;;;;4918737;29;19938;-62
2023/09/08 13:41:12;;;;;;;;;;;25.50;1.00;;;;;;4912931;29;20294;-62
2023/09/08 13:43:39;;;;;;;;;;;25.50;1.00;;;;;;4913934;29;20243;-62
2023/09/08 13:46:09;;;;;;;;;;;25.50;1.00;;;;;;4912994;29;20429;-62
2023/09/08 13:48:36;;;;;;;;;;;25.50;1.00;;;;;;4913743;29;19931;-62
2023/09/08 13:51:05;;;;;;;;;;;25.50;1.00;;;;;;4916077;29;19927;-60
2023/09/08 13:53:35;;;;;;;;;;;25.50;1.00;;;;;;4915940;29;19927;-62
2023/09/08 13:56:12;;;;;;;;;;;25.50;1.00;;;;;;4915918;29;20010;-60
2023/09/08 13:58:45;;;;;;;;;;;25.50;1.00;;;;;;4916293;29;19965;-62
2023/09/08 14:01:17;;;;;;;;;;;25.50;1.00;;;;;;4912901;29;19935;-62
2023/09/08 14:03:46;;;;;;;;;;;25.60;1.00;;;;;;4915579;29;19942;-61
2023/09/08 14:06:15;;;;;;;;;;;25.60;1.00;;;;;;4911972;29;19931;-60
2023/09/08 14:08:51;;;;;;;;;;;25.60;1.00;;;;;;4911452;29;19935;-62
2023/09/08 14:11:21;;;;;;;;;;;25.60;1.00;;;;;;4916169;29;20013;-62
2023/09/08 14:14:01;;;;;;;;;;;25.60;1.00;;;;;;4915370;29;19999;-63
2023/09/08 14:16:28;;;;;;;;;;;25.60;1.00;;;;;;4914588;29;20009;-62
2023/09/08 14:18:55;;;;;;;;;;;25.60;1.00;;;;;;4908404;29;20026;-62
2023/09/08 14:21:22;;;;;;;;;;;25.60;1.00;;;;;;4910928;29;19956;-63
2023/09/08 14:23:49;;;;;;;;;;;25.70;1.00;;;;;;4918036;29;19927;-62
2023/09/08 14:26:16;;;;;;;;;;;25.70;1.00;;;;;;4917860;29;19982;-62
2023/09/08 14:28:43;;;;;;;;;;;25.70;1.00;;;;;;4918157;29;19931;-62
2023/09/08 14:31:10;;;;;;;;;;;25.70;1.00;;;;;;4918280;29;19933;-62
2023/09/08 14:33:37;;;;;;;;;;;25.70;1.00;;;;;;4918141;29;20422;-62
2023/09/08 14:36:04;;;;;;;;;;;25.70;1.00;;;;;;4917488;29;19927;-62
2023/09/08 14:38:31;;;;;;;;;;;25.70;1.00;;;;;;4916035;29;19927;-62